createdAt,value
2018-11-12T00:02:15.179Z,48.65
2018-11-12T00:07:18.635Z,48.57
2018-11-12T00:12:22.132Z,48.90
2018-11-12T00:17:25.546Z,48.92
2018-11-12T00:22:28.958Z,48.66
2018-11-12T00:27:32.407Z,48.88
2018-11-12T00:32:35.946Z,49.23
2018-11-12T00:37:41.635Z,48.53
2018-11-12T00:42:45.431Z,49.11
2018-11-12T00:47:48.831Z,49.23
2018-11-12T00:52:52.309Z,49.35
2018-11-12T00:57:55.790Z,49.30
2018-11-12T01:02:59.173Z,49.31
2018-11-12T01:08:02.574Z,49.57
2018-11-12T01:13:05.977Z,49.53
2018-11-12T01:18:09.530Z,49.52
2018-11-12T01:23:12.937Z,49.18
2018-11-12T01:28:16.408Z,49.35
2018-11-12T01:33:19.827Z,49.58
2018-11-12T01:38:23.269Z,49.37
2018-11-12T01:43:26.698Z,49.43
2018-11-12T01:48:30.116Z,49.59
2018-11-12T01:53:33.919Z,49.45
2018-11-12T01:58:37.621Z,49.69
2018-11-12T02:03:41.037Z,49.71
2018-11-12T02:08:44.476Z,49.81
2018-11-12T02:13:47.915Z,50.01
2018-11-12T02:18:51.330Z,49.99
2018-11-12T02:23:54.724Z,49.90
2018-11-12T02:28:58.181Z,50.01
2018-11-12T02:34:01.593Z,49.96
2018-11-12T02:39:07.766Z,50.02
2018-11-12T02:44:11.348Z,50.20
2018-11-12T02:49:14.782Z,50.14
2018-11-12T02:54:18.189Z,50.14
2018-11-12T02:59:21.609Z,50.09
2018-11-12T03:04:25.042Z,49.97
2018-11-12T03:09:28.560Z,50.43
2018-11-12T03:14:31.970Z,50.01
2018-11-12T03:19:35.366Z,50.41
2018-11-12T03:24:38.814Z,50.27
2018-11-12T03:29:42.214Z,50.54
2018-11-12T03:34:45.650Z,50.44
2018-11-12T03:39:49.231Z,50.44
2018-11-12T03:44:52.632Z,50.71
2018-11-12T03:49:56.038Z,50.70
2018-11-12T03:54:59.462Z,50.72
2018-11-12T04:00:03.052Z,50.62
2018-11-12T04:05:06.642Z,50.46
2018-11-12T04:10:11.918Z,50.63
2018-11-12T04:15:16.587Z,50.73
2018-11-12T04:20:21.196Z,50.58
2018-11-12T04:25:24.613Z,50.71
2018-11-12T04:30:28.031Z,50.60
2018-11-12T04:35:31.698Z,50.86
2018-11-12T04:40:35.152Z,50.94
2018-11-12T04:45:38.621Z,50.88
2018-11-12T04:50:42.030Z,50.70
2018-11-12T04:55:45.490Z,50.79
2018-11-12T05:00:48.983Z,50.92
2018-11-12T05:05:52.433Z,51.04
2018-11-12T05:10:55.945Z,51.10
2018-11-12T05:15:59.401Z,50.78
2018-11-12T05:21:02.852Z,51.25
2018-11-12T05:26:06.326Z,51.20
2018-11-12T05:31:09.741Z,51.12
2018-11-12T05:36:13.227Z,51.11
2018-11-12T05:41:16.905Z,51.05
2018-11-12T05:46:20.342Z,51.02
2018-11-12T05:51:23.944Z,51.46
2018-11-12T05:56:27.381Z,51.55
2018-11-12T06:01:30.896Z,51.27
2018-11-12T06:22:15.365Z,51.42
2018-11-12T06:27:18.783Z,51.87
2018-11-12T06:32:22.199Z,51.86
2018-11-12T06:37:25.612Z,51.83
2018-11-12T06:42:29.041Z,52.15
2018-11-12T06:47:32.433Z,52.40
2018-11-12T06:52:35.829Z,52.51
2018-11-12T06:57:39.669Z,52.19
2018-11-12T07:02:43.082Z,52.64
2018-11-12T07:07:46.499Z,52.79
2018-11-12T07:12:50.724Z,52.60
2018-11-12T07:17:54.145Z,52.71
2018-11-12T07:22:57.548Z,52.88
2018-11-12T07:28:00.933Z,53.01
2018-11-12T07:33:04.367Z,52.72
2018-11-12T07:38:07.774Z,52.95
2018-11-12T07:43:11.180Z,43.73
2018-11-12T07:48:14.581Z,46.73
2018-11-12T07:53:17.981Z,45.80
2018-11-12T07:58:21.369Z,45.91
2018-11-12T08:03:24.891Z,45.60
2018-11-12T08:08:28.863Z,45.17
2018-11-12T08:13:32.337Z,46.05
2018-11-12T08:18:35.952Z,46.29
2018-11-12T08:23:39.206Z,46.97
2018-11-12T08:28:42.646Z,47.13
2018-11-12T08:33:46.151Z,47.38
2018-11-12T08:38:50.731Z,47.29
2018-11-12T08:43:54.206Z,47.44
2018-11-12T08:48:57.689Z,47.71
2018-11-12T08:54:01.097Z,47.66
2018-11-12T08:59:04.541Z,47.80
2018-11-12T09:04:08.158Z,48.11
2018-11-12T09:09:13.075Z,47.74
2018-11-12T09:14:16.432Z,48.11
2018-11-12T09:19:19.858Z,48.45
2018-11-12T09:24:23.416Z,48.69
2018-11-12T09:29:26.766Z,48.81
2018-11-12T09:34:30.184Z,48.87
2018-11-12T09:39:33.610Z,49.24
2018-11-12T09:44:37.062Z,49.33
2018-11-12T09:49:40.464Z,49.08
2018-11-12T09:54:43.927Z,49.56
2018-11-12T09:59:47.290Z,49.54
2018-11-12T10:04:52.213Z,48.72
2018-11-12T10:09:57.101Z,48.69
2018-11-12T10:14:59.411Z,49.01
2018-11-12T10:20:01.039Z,48.99
2018-11-12T10:25:04.557Z,48.95
2018-11-12T10:30:08.583Z,49.21
2018-11-12T10:35:12.006Z,49.77
2018-11-12T10:40:16.915Z,49.96
2018-11-12T10:45:20.555Z,49.39
2018-11-12T10:50:24.266Z,49.21
2018-11-12T10:55:27.798Z,49.41
2018-11-12T11:00:37.665Z,49.41
2018-11-12T11:05:42.486Z,49.68
2018-11-12T11:10:45.952Z,49.42
2018-11-12T11:15:49.367Z,49.64
2018-11-12T11:20:52.761Z,49.89
2018-11-12T11:25:56.197Z,49.28
2018-11-12T11:30:59.711Z,49.32
2018-11-12T11:36:03.189Z,49.24
2018-11-12T11:41:06.621Z,49.02
2018-11-12T11:46:10.138Z,49.02
2018-11-12T11:51:13.529Z,49.22
2018-11-12T11:56:16.945Z,49.59
2018-11-12T12:01:20.414Z,48.96
2018-11-12T12:06:23.869Z,48.77
2018-11-12T12:11:27.278Z,48.61
2018-11-12T12:16:30.709Z,48.96
2018-11-12T12:21:34.165Z,48.60
2018-11-12T12:26:37.580Z,47.07
2018-11-12T12:31:41.044Z,45.28
2018-11-12T12:36:44.517Z,44.66
2018-11-12T12:41:47.855Z,44.17
2018-11-12T12:46:52.454Z,44.28
2018-11-12T12:51:55.929Z,45.32
2018-11-12T12:56:59.348Z,46.19
2018-11-12T13:02:04.362Z,46.52
2018-11-12T13:07:07.747Z,46.81
2018-11-12T13:12:11.246Z,46.74
2018-11-12T13:17:15.790Z,46.82
2018-11-12T13:22:20.346Z,47.10
2018-11-12T13:27:25.041Z,47.01
2018-11-12T13:32:28.541Z,47.43
2018-11-12T13:37:31.934Z,47.46
2018-11-12T13:42:36.222Z,47.61
2018-11-12T13:47:39.634Z,48.12
2018-11-12T13:52:43.028Z,48.29
2018-11-12T13:57:46.478Z,48.37
2018-11-12T14:02:50.457Z,48.12
2018-11-12T14:07:53.880Z,48.48
2018-11-12T14:12:57.977Z,48.88
2018-11-12T14:18:01.387Z,49.12
2018-11-12T14:23:05.012Z,48.78
2018-11-12T14:28:08.446Z,49.27
2018-11-12T14:33:11.914Z,48.88
2018-11-12T14:38:15.297Z,48.96
2018-11-12T14:43:18.710Z,48.81
2018-11-12T14:48:22.121Z,48.39
2018-11-12T14:53:25.534Z,48.26
2018-11-12T14:58:29.008Z,48.39
2018-11-12T15:03:32.422Z,48.40
2018-11-12T15:08:35.857Z,48.32
2018-11-12T15:13:39.264Z,48.53
2018-11-12T15:18:42.689Z,49.18
2018-11-12T15:23:46.511Z,49.10
2018-11-12T15:28:49.994Z,48.73
2018-11-12T15:33:53.451Z,49.20
2018-11-12T15:38:56.872Z,49.05
2018-11-12T15:44:00.269Z,48.70
2018-11-12T15:49:03.970Z,48.46
2018-11-12T15:54:07.419Z,48.48
2018-11-12T15:59:10.840Z,48.36
2018-11-12T16:04:14.309Z,48.24
2018-11-12T16:09:17.726Z,48.36
2018-11-12T16:14:21.149Z,48.58
2018-11-12T16:19:24.663Z,48.49
2018-11-12T16:24:29.570Z,48.55
2018-11-12T16:29:34.120Z,48.56
2018-11-12T16:34:37.595Z,48.46
2018-11-12T16:39:41.017Z,49.05
2018-11-12T16:44:44.513Z,48.85
2018-11-12T16:49:47.982Z,48.63
2018-11-12T16:54:51.533Z,48.80
2018-11-12T16:59:54.924Z,48.07
2018-11-12T17:04:58.349Z,48.24
2018-11-12T17:10:01.791Z,48.37
2018-11-12T17:15:06.317Z,48.38
2018-11-12T17:20:10.988Z,48.20
2018-11-12T17:25:15.552Z,47.36
2018-11-12T17:30:20.230Z,46.91
2018-11-12T17:35:23.813Z,47.37
2018-11-12T17:40:27.309Z,47.28
2018-11-12T17:45:30.724Z,47.85
2018-11-12T17:50:34.224Z,47.04
2018-11-12T17:55:37.719Z,46.95
2018-11-12T18:00:41.369Z,46.58
2018-11-12T18:05:44.785Z,46.59
2018-11-12T18:10:48.201Z,47.08
2018-11-12T18:15:51.677Z,46.71
2018-11-12T18:20:55.088Z,46.91
2018-11-12T18:25:58.508Z,47.05
2018-11-12T18:31:02.108Z,47.12
2018-11-12T18:36:05.442Z,46.92
2018-11-12T18:41:08.845Z,46.93
2018-11-12T18:46:13.068Z,46.92
2018-11-12T18:51:16.650Z,46.87
2018-11-12T18:56:20.071Z,47.31
2018-11-12T19:01:23.535Z,47.10
2018-11-12T19:06:27.009Z,47.28
2018-11-12T19:11:30.511Z,47.11
2018-11-12T19:16:34.133Z,47.27
2018-11-12T19:21:37.587Z,47.25
2018-11-12T19:26:41.001Z,46.86
2018-11-12T19:31:44.416Z,47.24
2018-11-12T19:36:47.809Z,47.14
2018-11-12T19:41:51.325Z,47.11
2018-11-12T19:46:54.845Z,46.93
2018-11-12T19:51:58.337Z,47.19
2018-11-12T19:57:01.837Z,46.93
2018-11-12T20:02:05.697Z,47.00
2018-11-12T20:07:09.174Z,47.21
2018-11-12T20:12:12.665Z,46.78
2018-11-12T20:17:16.297Z,46.57
2018-11-12T20:22:19.801Z,46.93
2018-11-12T20:27:23.276Z,46.89
2018-11-12T20:32:26.782Z,47.38
2018-11-12T20:37:30.236Z,46.93
2018-11-12T20:42:33.882Z,46.82
2018-11-12T20:47:38.076Z,47.16
2018-11-12T20:52:42.381Z,47.52
2018-11-12T20:57:45.967Z,47.51
2018-11-12T21:02:51.000Z,47.20
2018-11-12T21:07:54.570Z,47.48
2018-11-12T21:12:57.987Z,47.13
2018-11-12T21:18:01.479Z,47.40
2018-11-12T21:23:05.009Z,47.68
2018-11-12T21:28:08.474Z,47.54
2018-11-12T21:33:11.892Z,47.54
2018-11-12T21:38:15.434Z,47.63
2018-11-12T21:43:19.002Z,47.39
2018-11-12T21:48:22.353Z,47.80
2018-11-12T21:53:25.819Z,47.73
2018-11-12T21:58:29.385Z,47.77
2018-11-12T22:03:32.845Z,47.52
2018-11-12T22:08:36.588Z,47.88
2018-11-12T22:13:40.225Z,47.89
2018-11-12T22:18:43.825Z,47.72
2018-11-12T22:23:47.303Z,47.87
2018-11-12T22:28:50.827Z,48.03
2018-11-12T22:33:54.302Z,48.01
2018-11-12T22:38:57.695Z,47.72
2018-11-12T22:44:01.279Z,47.86
2018-11-12T22:49:04.844Z,48.27
2018-11-12T22:54:08.465Z,47.93
2018-11-12T22:59:11.964Z,47.94
2018-11-12T23:04:15.444Z,48.30
2018-11-12T23:09:19.574Z,48.26
2018-11-12T23:14:23.006Z,48.20
2018-11-12T23:19:26.507Z,48.46
2018-11-12T23:24:29.944Z,47.94
2018-11-12T23:29:33.422Z,47.98
2018-11-12T23:34:37.766Z,48.09
2018-11-12T23:39:41.200Z,48.14
2018-11-12T23:44:44.678Z,48.28
2018-11-12T23:49:48.139Z,48.11
2018-11-12T23:54:51.716Z,48.29
2018-11-12T23:59:55.537Z,48.41
